sensor_id;sensor_type;location;lat;lon;timestamp;P1;durP1;ratioP1;P2;durP2;ratioP2
26484;SDS011;18083;50.560;7.262;2023-01-19T00:00:51;16.97;;;10.70;;
26484;SDS011;18083;50.560;7.262;2023-01-19T00:03:19;21.50;;;12.07;;
26484;SDS011;18083;50.560;7.262;2023-01-19T00:05:46;23.30;;;10.67;;
26484;SDS011;18083;50.560;7.262;2023-01-19T00:08:14;21.53;;;10.40;;
26484;SDS011;18083;50.560;7.262;2023-01-19T00:10:42;19.43;;;10.67;;
26484;SDS011;18083;50.560;7.262;2023-01-19T00:13:10;23.73;;;11.00;;
26484;SDS011;18083;50.560;7.262;2023-01-19T00:18:42;15.97;;;10.57;;
26484;SDS011;18083;50.560;7.262;2023-01-19T00:21:09;22.03;;;12.30;;
26484;SDS011;18083;50.560;7.262;2023-01-19T00:23:36;23.03;;;11.63;;
26484;SDS011;18083;50.560;7.262;2023-01-19T00:26:04;27.03;;;11.03;;
26484;SDS011;18083;50.560;7.262;2023-01-19T00:28:31;22.77;;;11.87;;
26484;SDS011;18083;50.560;7.262;2023-01-19T00:30:58;20.00;;;12.17;;
26484;SDS011;18083;50.560;7.262;2023-01-19T00:33:26;29.47;;;13.40;;
26484;SDS011;18083;50.560;7.262;2023-01-19T00:35:53;21.10;;;12.30;;
26484;SDS011;18083;50.560;7.262;2023-01-19T00:38:21;21.27;;;11.73;;
26484;SDS011;18083;50.560;7.262;2023-01-19T00:40:48;19.77;;;12.57;;
26484;SDS011;18083;50.560;7.262;2023-01-19T00:43:16;23.13;;;11.97;;
26484;SDS011;18083;50.560;7.262;2023-01-19T00:45:43;18.53;;;11.00;;
26484;SDS011;18083;50.560;7.262;2023-01-19T00:48:11;19.17;;;10.83;;
26484;SDS011;18083;50.560;7.262;2023-01-19T00:50:38;20.50;;;10.43;;
26484;SDS011;18083;50.560;7.262;2023-01-19T00:53:05;20.67;;;11.70;;
26484;SDS011;18083;50.560;7.262;2023-01-19T00:55:33;22.13;;;12.77;;
26484;SDS011;18083;50.560;7.262;2023-01-19T00:58:00;22.47;;;13.13;;
26484;SDS011;18083;50.560;7.262;2023-01-19T01:00:28;21.67;;;11.50;;
26484;SDS011;18083;50.560;7.262;2023-01-19T01:02:56;24.00;;;12.30;;
26484;SDS011;18083;50.560;7.262;2023-01-19T01:05:23;18.93;;;12.60;;
26484;SDS011;18083;50.560;7.262;2023-01-19T01:07:50;22.97;;;12.80;;
26484;SDS011;18083;50.560;7.262;2023-01-19T01:10:19;22.57;;;13.10;;
26484;SDS011;18083;50.560;7.262;2023-01-19T01:12:47;16.17;;;10.07;;
26484;SDS011;18083;50.560;7.262;2023-01-19T01:15:15;20.97;;;13.33;;
26484;SDS011;18083;50.560;7.262;2023-01-19T01:17:42;16.27;;;12.50;;
26484;SDS011;18083;50.560;7.262;2023-01-19T01:20:21;20.23;;;11.83;;
26484;SDS011;18083;50.560;7.262;2023-01-19T01:22:50;19.83;;;11.93;;
26484;SDS011;18083;50.560;7.262;2023-01-19T01:25:19;20.17;;;11.23;;
26484;SDS011;18083;50.560;7.262;2023-01-19T01:27:48;21.63;;;10.93;;
26484;SDS011;18083;50.560;7.262;2023-01-19T01:30:17;18.83;;;11.40;;
26484;SDS011;18083;50.560;7.262;2023-01-19T01:32:44;23.50;;;14.50;;
26484;SDS011;18083;50.560;7.262;2023-01-19T01:35:11;17.33;;;10.97;;
26484;SDS011;18083;50.560;7.262;2023-01-19T01:37:39;23.67;;;13.67;;
26484;SDS011;18083;50.560;7.262;2023-01-19T01:40:08;22.93;;;12.07;;
26484;SDS011;18083;50.560;7.262;2023-01-19T01:42:36;22.87;;;12.30;;
26484;SDS011;18083;50.560;7.262;2023-01-19T01:45:48;20.87;;;11.83;;
26484;SDS011;18083;50.560;7.262;2023-01-19T01:50:16;22.50;;;11.30;;
26484;SDS011;18083;50.560;7.262;2023-01-19T01:53:05;18.53;;;10.40;;
26484;SDS011;18083;50.560;7.262;2023-01-19T01:55:32;20.70;;;11.53;;
26484;SDS011;18083;50.560;7.262;2023-01-19T01:58:02;20.63;;;11.90;;
26484;SDS011;18083;50.560;7.262;2023-01-19T02:00:29;22.37;;;12.00;;
26484;SDS011;18083;50.560;7.262;2023-01-19T02:03:01;18.33;;;12.53;;
26484;SDS011;18083;50.560;7.262;2023-01-19T02:05:30;19.10;;;12.43;;
26484;SDS011;18083;50.560;7.262;2023-01-19T02:10:54;19.63;;;11.67;;
26484;SDS011;18083;50.560;7.262;2023-01-19T02:13:40;21.67;;;12.20;;
26484;SDS011;18083;50.560;7.262;2023-01-19T02:16:09;24.33;;;13.43;;
26484;SDS011;18083;50.560;7.262;2023-01-19T02:18:38;25.10;;;15.33;;
26484;SDS011;18083;50.560;7.262;2023-01-19T02:23:53;28.87;;;13.90;;
26484;SDS011;18083;50.560;7.262;2023-01-19T02:26:26;23.80;;;13.00;;
26484;SDS011;18083;50.560;7.262;2023-01-19T02:29:06;21.10;;;13.37;;
26484;SDS011;18083;50.560;7.262;2023-01-19T02:31:35;22.57;;;12.47;;
26484;SDS011;18083;50.560;7.262;2023-01-19T02:34:22;26.07;;;13.93;;
26484;SDS011;18083;50.560;7.262;2023-01-19T02:36:53;25.40;;;13.57;;
26484;SDS011;18083;50.560;7.262;2023-01-19T02:39:24;19.50;;;12.63;;
26484;SDS011;18083;50.560;7.262;2023-01-19T02:41:52;18.23;;;10.97;;
26484;SDS011;18083;50.560;7.262;2023-01-19T02:44:19;25.30;;;13.10;;
26484;SDS011;18083;50.560;7.262;2023-01-19T02:46:47;19.33;;;12.17;;
26484;SDS011;18083;50.560;7.262;2023-01-19T02:49:15;21.17;;;13.07;;
26484;SDS011;18083;50.560;7.262;2023-01-19T02:51:42;20.03;;;12.40;;
26484;SDS011;18083;50.560;7.262;2023-01-19T02:54:18;24.83;;;13.33;;
26484;SDS011;18083;50.560;7.262;2023-01-19T02:59:33;20.50;;;12.20;;
26484;SDS011;18083;50.560;7.262;2023-01-19T03:15:50;25.80;;;13.87;;
26484;SDS011;18083;50.560;7.262;2023-01-19T03:18:20;21.43;;;12.80;;
26484;SDS011;18083;50.560;7.262;2023-01-19T03:20:49;27.43;;;13.97;;
26484;SDS011;18083;50.560;7.262;2023-01-19T03:23:18;25.77;;;13.47;;
26484;SDS011;18083;50.560;7.262;2023-01-19T03:26:08;27.13;;;13.40;;
26484;SDS011;18083;50.560;7.262;2023-01-19T03:28:35;21.57;;;12.33;;
26484;SDS011;18083;50.560;7.262;2023-01-19T03:31:06;22.47;;;12.53;;
26484;SDS011;18083;50.560;7.262;2023-01-19T03:33:35;22.57;;;12.43;;
26484;SDS011;18083;50.560;7.262;2023-01-19T03:36:07;24.07;;;14.07;;
26484;SDS011;18083;50.560;7.262;2023-01-19T03:38:32;19.47;;;11.73;;
26484;SDS011;18083;50.560;7.262;2023-01-19T03:41:01;23.70;;;13.73;;
26484;SDS011;18083;50.560;7.262;2023-01-19T03:43:29;27.17;;;12.80;;
26484;SDS011;18083;50.560;7.262;2023-01-19T03:45:57;21.43;;;14.20;;
26484;SDS011;18083;50.560;7.262;2023-01-19T03:48:25;25.73;;;13.40;;
26484;SDS011;18083;50.560;7.262;2023-01-19T03:50:52;21.00;;;12.90;;
26484;SDS011;18083;50.560;7.262;2023-01-19T03:53:19;21.40;;;13.57;;
26484;SDS011;18083;50.560;7.262;2023-01-19T03:55:49;17.33;;;12.90;;
26484;SDS011;18083;50.560;7.262;2023-01-19T03:58:17;27.07;;;13.90;;
26484;SDS011;18083;50.560;7.262;2023-01-19T04:00:44;25.63;;;14.03;;
26484;SDS011;18083;50.560;7.262;2023-01-19T04:03:12;26.50;;;13.83;;
26484;SDS011;18083;50.560;7.262;2023-01-19T04:05:40;31.40;;;14.33;;
26484;SDS011;18083;50.560;7.262;2023-01-19T04:08:08;27.80;;;12.70;;
26484;SDS011;18083;50.560;7.262;2023-01-19T04:10:35;23.63;;;12.87;;
26484;SDS011;18083;50.560;7.262;2023-01-19T04:13:02;27.43;;;14.23;;
26484;SDS011;18083;50.560;7.262;2023-01-19T04:15:30;21.50;;;13.53;;
26484;SDS011;18083;50.560;7.262;2023-01-19T04:17:58;27.07;;;13.57;;
26484;SDS011;18083;50.560;7.262;2023-01-19T04:20:26;23.27;;;14.07;;
26484;SDS011;18083;50.560;7.262;2023-01-19T04:22:57;26.17;;;14.03;;
26484;SDS011;18083;50.560;7.262;2023-01-19T04:25:23;25.27;;;13.07;;
26484;SDS011;18083;50.560;7.262;2023-01-19T04:27:50;23.63;;;13.03;;
26484;SDS011;18083;50.560;7.262;2023-01-19T04:30:18;21.70;;;14.03;;
26484;SDS011;18083;50.560;7.262;2023-01-19T04:32:46;25.87;;;14.50;;
26484;SDS011;18083;50.560;7.262;2023-01-19T04:35:13;28.07;;;15.00;;
26484;SDS011;18083;50.560;7.262;2023-01-19T04:37:40;25.20;;;14.17;;
26484;SDS011;18083;50.560;7.262;2023-01-19T04:40:08;23.33;;;13.80;;
26484;SDS011;18083;50.560;7.262;2023-01-19T04:42:35;24.73;;;15.57;;
26484;SDS011;18083;50.560;7.262;2023-01-19T04:45:03;24.93;;;13.43;;
26484;SDS011;18083;50.560;7.262;2023-01-19T04:47:30;27.67;;;14.63;;
26484;SDS011;18083;50.560;7.262;2023-01-19T04:49:57;21.33;;;13.77;;
26484;SDS011;18083;50.560;7.262;2023-01-19T04:52:29;28.00;;;15.53;;
26484;SDS011;18083;50.560;7.262;2023-01-19T04:54:55;21.03;;;12.87;;
26484;SDS011;18083;50.560;7.262;2023-01-19T04:57:23;21.70;;;13.73;;
26484;SDS011;18083;50.560;7.262;2023-01-19T04:59:50;27.37;;;13.80;;
26484;SDS011;18083;50.560;7.262;2023-01-19T05:02:17;20.80;;;13.17;;
26484;SDS011;18083;50.560;7.262;2023-01-19T05:04:45;24.33;;;12.13;;
26484;SDS011;18083;50.560;7.262;2023-01-19T05:07:12;22.30;;;14.07;;
26484;SDS011;18083;50.560;7.262;2023-01-19T05:09:39;23.63;;;11.90;;
26484;SDS011;18083;50.560;7.262;2023-01-19T05:12:07;23.70;;;12.77;;
26484;SDS011;18083;50.560;7.262;2023-01-19T05:14:34;19.07;;;12.07;;
26484;SDS011;18083;50.560;7.262;2023-01-19T05:17:02;22.60;;;13.27;;
26484;SDS011;18083;50.560;7.262;2023-01-19T05:19:29;23.00;;;12.93;;
26484;SDS011;18083;50.560;7.262;2023-01-19T05:21:56;20.03;;;12.67;;
26484;SDS011;18083;50.560;7.262;2023-01-19T05:24:24;19.67;;;12.43;;
26484;SDS011;18083;50.560;7.262;2023-01-19T05:26:51;22.90;;;12.53;;
26484;SDS011;18083;50.560;7.262;2023-01-19T05:29:18;20.63;;;11.93;;
26484;SDS011;18083;50.560;7.262;2023-01-19T05:31:46;23.03;;;14.10;;
26484;SDS011;18083;50.560;7.262;2023-01-19T05:37:00;31.90;;;17.27;;
26484;SDS011;18083;50.560;7.262;2023-01-19T05:39:27;27.03;;;16.00;;
26484;SDS011;18083;50.560;7.262;2023-01-19T05:41:55;26.50;;;14.53;;
26484;SDS011;18083;50.560;7.262;2023-01-19T05:44:23;21.33;;;14.10;;
26484;SDS011;18083;50.560;7.262;2023-01-19T05:46:50;19.23;;;12.53;;
26484;SDS011;18083;50.560;7.262;2023-01-19T05:49:17;36.73;;;17.10;;
26484;SDS011;18083;50.560;7.262;2023-01-19T05:54:31;31.43;;;17.33;;
26484;SDS011;18083;50.560;7.262;2023-01-19T05:56:59;24.87;;;15.23;;
26484;SDS011;18083;50.560;7.262;2023-01-19T05:59:26;26.17;;;14.50;;
26484;SDS011;18083;50.560;7.262;2023-01-19T06:01:54;24.93;;;12.83;;
26484;SDS011;18083;50.560;7.262;2023-01-19T06:04:22;21.20;;;13.07;;
26484;SDS011;18083;50.560;7.262;2023-01-19T06:06:49;19.80;;;12.77;;
26484;SDS011;18083;50.560;7.262;2023-01-19T06:09:17;19.03;;;10.90;;
26484;SDS011;18083;50.560;7.262;2023-01-19T06:11:44;21.80;;;10.67;;
26484;SDS011;18083;50.560;7.262;2023-01-19T06:14:12;17.00;;;10.93;;
26484;SDS011;18083;50.560;7.262;2023-01-19T06:16:39;14.73;;;10.87;;
26484;SDS011;18083;50.560;7.262;2023-01-19T06:19:07;19.67;;;10.83;;
26484;SDS011;18083;50.560;7.262;2023-01-19T06:21:34;25.57;;;12.63;;
26484;SDS011;18083;50.560;7.262;2023-01-19T06:24:01;17.97;;;10.87;;
26484;SDS011;18083;50.560;7.262;2023-01-19T06:26:29;20.70;;;11.33;;
26484;SDS011;18083;50.560;7.262;2023-01-19T06:28:56;20.97;;;10.10;;
26484;SDS011;18083;50.560;7.262;2023-01-19T06:31:24;16.13;;;10.37;;
26484;SDS011;18083;50.560;7.262;2023-01-19T06:33:51;15.90;;;10.10;;
26484;SDS011;18083;50.560;7.262;2023-01-19T06:36:18;23.13;;;12.30;;
26484;SDS011;18083;50.560;7.262;2023-01-19T06:38:45;21.23;;;11.77;;
26484;SDS011;18083;50.560;7.262;2023-01-19T06:41:13;24.43;;;12.20;;
26484;SDS011;18083;50.560;7.262;2023-01-19T06:43:40;15.43;;;9.33;;
26484;SDS011;18083;50.560;7.262;2023-01-19T06:46:08;19.50;;;11.43;;
26484;SDS011;18083;50.560;7.262;2023-01-19T06:48:35;27.07;;;15.50;;
26484;SDS011;18083;50.560;7.262;2023-01-19T06:51:09;22.03;;;10.90;;
26484;SDS011;18083;50.560;7.262;2023-01-19T06:53:34;15.97;;;11.00;;
26484;SDS011;18083;50.560;7.262;2023-01-19T06:56:04;18.17;;;11.30;;
26484;SDS011;18083;50.560;7.262;2023-01-19T06:58:32;21.00;;;11.70;;
26484;SDS011;18083;50.560;7.262;2023-01-19T07:01:03;15.43;;;10.33;;
26484;SDS011;18083;50.560;7.262;2023-01-19T07:03:31;16.40;;;10.93;;
26484;SDS011;18083;50.560;7.262;2023-01-19T07:05:59;20.47;;;10.80;;
26484;SDS011;18083;50.560;7.262;2023-01-19T07:08:31;20.70;;;11.37;;
26484;SDS011;18083;50.560;7.262;2023-01-19T07:11:03;16.87;;;9.63;;
26484;SDS011;18083;50.560;7.262;2023-01-19T07:13:32;19.63;;;11.57;;
26484;SDS011;18083;50.560;7.262;2023-01-19T07:18:35;19.20;;;9.77;;
26484;SDS011;18083;50.560;7.262;2023-01-19T07:21:03;17.80;;;9.83;;
26484;SDS011;18083;50.560;7.262;2023-01-19T07:23:30;15.47;;;9.60;;
26484;SDS011;18083;50.560;7.262;2023-01-19T07:25:58;19.87;;;10.50;;
26484;SDS011;18083;50.560;7.262;2023-01-19T07:28:27;16.70;;;9.47;;
26484;SDS011;18083;50.560;7.262;2023-01-19T07:30:55;17.53;;;10.30;;
26484;SDS011;18083;50.560;7.262;2023-01-19T07:33:22;15.50;;;8.83;;
26484;SDS011;18083;50.560;7.262;2023-01-19T07:35:52;14.47;;;9.30;;
26484;SDS011;18083;50.560;7.262;2023-01-19T07:38:20;14.00;;;9.17;;
26484;SDS011;18083;50.560;7.262;2023-01-19T07:40:47;14.87;;;10.13;;
26484;SDS011;18083;50.560;7.262;2023-01-19T07:43:15;16.53;;;9.43;;
26484;SDS011;18083;50.560;7.262;2023-01-19T07:45:42;16.07;;;8.87;;
26484;SDS011;18083;50.560;7.262;2023-01-19T07:48:10;15.77;;;8.53;;
26484;SDS011;18083;50.560;7.262;2023-01-19T07:50:38;13.30;;;8.50;;
26484;SDS011;18083;50.560;7.262;2023-01-19T07:53:06;15.13;;;8.27;;
26484;SDS011;18083;50.560;7.262;2023-01-19T07:55:34;13.20;;;8.90;;
26484;SDS011;18083;50.560;7.262;2023-01-19T07:58:01;12.23;;;8.20;;
26484;SDS011;18083;50.560;7.262;2023-01-19T08:00:30;13.67;;;8.30;;
26484;SDS011;18083;50.560;7.262;2023-01-19T08:02:59;17.23;;;8.87;;
26484;SDS011;18083;50.560;7.262;2023-01-19T08:08:32;18.20;;;9.87;;
26484;SDS011;18083;50.560;7.262;2023-01-19T08:10:59;16.80;;;8.50;;
26484;SDS011;18083;50.560;7.262;2023-01-19T08:13:26;19.73;;;9.87;;
26484;SDS011;18083;50.560;7.262;2023-01-19T08:15:54;18.90;;;10.93;;
26484;SDS011;18083;50.560;7.262;2023-01-19T08:18:21;19.73;;;11.10;;
26484;SDS011;18083;50.560;7.262;2023-01-19T08:20:48;19.37;;;10.73;;
26484;SDS011;18083;50.560;7.262;2023-01-19T08:23:16;16.50;;;9.80;;
26484;SDS011;18083;50.560;7.262;2023-01-19T08:25:44;14.13;;;9.30;;
26484;SDS011;18083;50.560;7.262;2023-01-19T08:28:12;18.07;;;9.57;;
26484;SDS011;18083;50.560;7.262;2023-01-19T08:30:40;14.83;;;9.27;;
26484;SDS011;18083;50.560;7.262;2023-01-19T08:33:14;18.30;;;10.97;;
26484;SDS011;18083;50.560;7.262;2023-01-19T08:35:39;19.80;;;11.43;;
26484;SDS011;18083;50.560;7.262;2023-01-19T08:38:07;18.77;;;10.77;;
26484;SDS011;18083;50.560;7.262;2023-01-19T08:40:36;15.13;;;9.63;;
26484;SDS011;18083;50.560;7.262;2023-01-19T08:43:05;15.50;;;9.37;;
26484;SDS011;18083;50.560;7.262;2023-01-19T08:45:33;17.03;;;9.50;;
26484;SDS011;18083;50.560;7.262;2023-01-19T08:48:01;17.70;;;10.47;;
26484;SDS011;18083;50.560;7.262;2023-01-19T08:50:29;13.90;;;9.43;;
26484;SDS011;18083;50.560;7.262;2023-01-19T08:52:57;16.97;;;9.17;;
26484;SDS011;18083;50.560;7.262;2023-01-19T08:55:25;19.47;;;9.53;;
26484;SDS011;18083;50.560;7.262;2023-01-19T08:57:52;16.33;;;9.10;;
26484;SDS011;18083;50.560;7.262;2023-01-19T09:00:20;13.07;;;8.90;;
26484;SDS011;18083;50.560;7.262;2023-01-19T09:05:24;17.33;;;9.60;;
26484;SDS011;18083;50.560;7.262;2023-01-19T09:07:51;13.07;;;9.00;;
26484;SDS011;18083;50.560;7.262;2023-01-19T09:10:18;15.43;;;9.30;;
26484;SDS011;18083;50.560;7.262;2023-01-19T09:12:46;14.87;;;8.63;;
26484;SDS011;18083;50.560;7.262;2023-01-19T09:15:13;12.40;;;9.37;;
26484;SDS011;18083;50.560;7.262;2023-01-19T09:17:40;17.67;;;9.23;;
26484;SDS011;18083;50.560;7.262;2023-01-19T09:20:08;15.60;;;9.43;;
26484;SDS011;18083;50.560;7.262;2023-01-19T09:22:35;18.67;;;10.30;;
26484;SDS011;18083;50.560;7.262;2023-01-19T09:25:05;17.33;;;9.67;;
26484;SDS011;18083;50.560;7.262;2023-01-19T09:27:33;21.00;;;10.90;;
26484;SDS011;18083;50.560;7.262;2023-01-19T09:30:00;16.40;;;10.67;;
26484;SDS011;18083;50.560;7.262;2023-01-19T09:32:28;17.30;;;11.70;;
26484;SDS011;18083;50.560;7.262;2023-01-19T09:34:55;14.20;;;10.30;;
26484;SDS011;18083;50.560;7.262;2023-01-19T09:37:22;18.40;;;9.47;;
26484;SDS011;18083;50.560;7.262;2023-01-19T09:39:50;16.73;;;9.50;;
26484;SDS011;18083;50.560;7.262;2023-01-19T09:42:22;17.43;;;10.27;;
26484;SDS011;18083;50.560;7.262;2023-01-19T09:44:50;16.23;;;9.93;;
26484;SDS011;18083;50.560;7.262;2023-01-19T09:47:20;19.30;;;8.50;;
26484;SDS011;18083;50.560;7.262;2023-01-19T09:52:44;13.17;;;7.63;;
26484;SDS011;18083;50.560;7.262;2023-01-19T09:55:21;15.80;;;9.53;;
26484;SDS011;18083;50.560;7.262;2023-01-19T09:57:45;16.33;;;8.77;;
26484;SDS011;18083;50.560;7.262;2023-01-19T10:00:17;15.93;;;8.67;;
26484;SDS011;18083;50.560;7.262;2023-01-19T10:02:52;13.60;;;8.67;;
26484;SDS011;18083;50.560;7.262;2023-01-19T10:10:34;14.33;;;8.60;;
26484;SDS011;18083;50.560;7.262;2023-01-19T10:13:20;18.30;;;11.10;;
26484;SDS011;18083;50.560;7.262;2023-01-19T10:18:43;18.33;;;10.97;;
26484;SDS011;18083;50.560;7.262;2023-01-19T10:21:25;20.10;;;11.17;;
26484;SDS011;18083;50.560;7.262;2023-01-19T10:23:53;15.93;;;10.70;;
26484;SDS011;18083;50.560;7.262;2023-01-19T10:26:41;17.00;;;10.90;;
26484;SDS011;18083;50.560;7.262;2023-01-19T10:31:44;15.57;;;8.63;;
26484;SDS011;18083;50.560;7.262;2023-01-19T10:34:12;16.97;;;8.30;;
26484;SDS011;18083;50.560;7.262;2023-01-19T10:36:41;14.33;;;8.60;;
26484;SDS011;18083;50.560;7.262;2023-01-19T10:39:09;15.53;;;9.30;;
26484;SDS011;18083;50.560;7.262;2023-01-19T10:44:35;13.47;;;9.00;;
26484;SDS011;18083;50.560;7.262;2023-01-19T10:47:03;17.07;;;8.90;;
26484;SDS011;18083;50.560;7.262;2023-01-19T10:49:38;15.93;;;9.60;;
26484;SDS011;18083;50.560;7.262;2023-01-19T10:55:05;14.60;;;8.33;;
26484;SDS011;18083;50.560;7.262;2023-01-19T11:00:39;16.13;;;8.00;;
26484;SDS011;18083;50.560;7.262;2023-01-19T11:03:23;13.53;;;8.23;;
26484;SDS011;18083;50.560;7.262;2023-01-19T11:05:50;14.17;;;10.23;;
26484;SDS011;18083;50.560;7.262;2023-01-19T11:08:22;16.20;;;8.63;;
26484;SDS011;18083;50.560;7.262;2023-01-19T11:10:54;13.60;;;7.10;;
26484;SDS011;18083;50.560;7.262;2023-01-19T11:13:21;10.53;;;6.93;;
26484;SDS011;18083;50.560;7.262;2023-01-19T11:15:57;10.03;;;6.97;;
26484;SDS011;18083;50.560;7.262;2023-01-19T11:18:23;13.80;;;8.63;;
26484;SDS011;18083;50.560;7.262;2023-01-19T11:20:52;14.20;;;8.33;;
26484;SDS011;18083;50.560;7.262;2023-01-19T11:23:37;15.70;;;9.93;;
26484;SDS011;18083;50.560;7.262;2023-01-19T11:26:05;16.67;;;10.93;;
26484;SDS011;18083;50.560;7.262;2023-01-19T11:31:02;16.50;;;9.97;;
26484;SDS011;18083;50.560;7.262;2023-01-19T11:33:34;18.87;;;10.43;;
26484;SDS011;18083;50.560;7.262;2023-01-19T11:36:03;16.50;;;9.73;;
26484;SDS011;18083;50.560;7.262;2023-01-19T11:38:30;16.73;;;10.23;;
26484;SDS011;18083;50.560;7.262;2023-01-19T11:40:58;13.80;;;10.07;;
26484;SDS011;18083;50.560;7.262;2023-01-19T11:43:28;14.27;;;9.93;;
26484;SDS011;18083;50.560;7.262;2023-01-19T11:45:56;21.03;;;11.67;;
26484;SDS011;18083;50.560;7.262;2023-01-19T11:48:32;15.83;;;10.47;;
26484;SDS011;18083;50.560;7.262;2023-01-19T11:50:56;16.17;;;11.10;;
26484;SDS011;18083;50.560;7.262;2023-01-19T11:53:25;11.40;;;9.07;;
26484;SDS011;18083;50.560;7.262;2023-01-19T11:56:28;15.00;;;9.83;;
26484;SDS011;18083;50.560;7.262;2023-01-19T11:58:36;15.87;;;10.47;;
26484;SDS011;18083;50.560;7.262;2023-01-19T12:01:19;13.97;;;8.00;;
26484;SDS011;18083;50.560;7.262;2023-01-19T12:03:49;14.20;;;9.00;;
26484;SDS011;18083;50.560;7.262;2023-01-19T12:06:26;14.70;;;8.43;;
26484;SDS011;18083;50.560;7.262;2023-01-19T12:08:49;13.60;;;9.90;;
26484;SDS011;18083;50.560;7.262;2023-01-19T12:11:17;17.70;;;11.03;;
26484;SDS011;18083;50.560;7.262;2023-01-19T12:13:45;19.23;;;11.00;;
26484;SDS011;18083;50.560;7.262;2023-01-19T12:16:16;14.80;;;8.23;;
26484;SDS011;18083;50.560;7.262;2023-01-19T12:18:47;10.10;;;7.30;;
26484;SDS011;18083;50.560;7.262;2023-01-19T12:21:10;13.80;;;7.40;;
26484;SDS011;18083;50.560;7.262;2023-01-19T12:26:27;9.07;;;5.63;;
26484;SDS011;18083;50.560;7.262;2023-01-19T12:29:17;8.53;;;5.50;;
26484;SDS011;18083;50.560;7.262;2023-01-19T12:34:43;9.37;;;5.83;;
26484;SDS011;18083;50.560;7.262;2023-01-19T12:42:23;13.97;;;5.67;;
26484;SDS011;18083;50.560;7.262;2023-01-19T12:45:03;14.40;;;5.27;;
26484;SDS011;18083;50.560;7.262;2023-01-19T12:47:19;7.77;;;4.07;;
26484;SDS011;18083;50.560;7.262;2023-01-19T12:49:50;5.33;;;4.33;;
26484;SDS011;18083;50.560;7.262;2023-01-19T12:55:05;11.93;;;4.17;;
26484;SDS011;18083;50.560;7.262;2023-01-19T12:57:35;8.07;;;3.83;;
26484;SDS011;18083;50.560;7.262;2023-01-19T13:00:26;5.40;;;4.10;;
26484;SDS011;18083;50.560;7.262;2023-01-19T13:02:45;6.70;;;4.50;;
26484;SDS011;18083;50.560;7.262;2023-01-19T13:13:16;6.93;;;3.30;;
26484;SDS011;18083;50.560;7.262;2023-01-19T13:15:44;6.00;;;3.30;;
26484;SDS011;18083;50.560;7.262;2023-01-19T13:18:18;9.20;;;3.27;;
26484;SDS011;18083;50.560;7.262;2023-01-19T13:21:02;5.63;;;3.87;;
26484;SDS011;18083;50.560;7.262;2023-01-19T13:23:49;8.43;;;3.23;;
26484;SDS011;18083;50.560;7.262;2023-01-19T13:26:00;9.30;;;3.60;;
26484;SDS011;18083;50.560;7.262;2023-01-19T13:31:15;3.80;;;3.10;;
26484;SDS011;18083;50.560;7.262;2023-01-19T13:36:22;7.40;;;3.93;;
26484;SDS011;18083;50.560;7.262;2023-01-19T13:38:52;9.13;;;3.13;;
26484;SDS011;18083;50.560;7.262;2023-01-19T13:41:21;6.40;;;3.17;;
26484;SDS011;18083;50.560;7.262;2023-01-19T13:44:34;5.90;;;3.50;;
26484;SDS011;18083;50.560;7.262;2023-01-19T13:46:19;5.17;;;2.90;;
26484;SDS011;18083;50.560;7.262;2023-01-19T13:48:53;6.93;;;3.20;;
26484;SDS011;18083;50.560;7.262;2023-01-19T13:51:22;5.87;;;2.63;;
26484;SDS011;18083;50.560;7.262;2023-01-19T13:53:56;6.67;;;3.53;;
26484;SDS011;18083;50.560;7.262;2023-01-19T13:56:25;6.90;;;2.97;;
26484;SDS011;18083;50.560;7.262;2023-01-19T13:59:01;8.60;;;2.90;;
26484;SDS011;18083;50.560;7.262;2023-01-19T14:01:30;13.97;;;3.80;;
26484;SDS011;18083;50.560;7.262;2023-01-19T14:03:58;5.13;;;3.40;;
26484;SDS011;18083;50.560;7.262;2023-01-19T14:06:30;8.40;;;3.60;;
26484;SDS011;18083;50.560;7.262;2023-01-19T14:09:04;11.43;;;3.10;;
26484;SDS011;18083;50.560;7.262;2023-01-19T14:11:32;5.13;;;3.00;;
26484;SDS011;18083;50.560;7.262;2023-01-19T14:13:59;8.90;;;3.60;;
26484;SDS011;18083;50.560;7.262;2023-01-19T14:16:27;9.37;;;3.90;;
26484;SDS011;18083;50.560;7.262;2023-01-19T14:18:58;3.73;;;3.00;;
26484;SDS011;18083;50.560;7.262;2023-01-19T14:21:35;6.30;;;3.10;;
26484;SDS011;18083;50.560;7.262;2023-01-19T14:24:14;9.23;;;3.70;;
26484;SDS011;18083;50.560;7.262;2023-01-19T14:26:45;6.43;;;4.00;;
26484;SDS011;18083;50.560;7.262;2023-01-19T14:29:21;6.20;;;4.23;;
26484;SDS011;18083;50.560;7.262;2023-01-19T14:32:03;8.50;;;3.57;;
26484;SDS011;18083;50.560;7.262;2023-01-19T14:39:35;7.23;;;4.17;;
26484;SDS011;18083;50.560;7.262;2023-01-19T14:42:03;7.63;;;4.20;;
26484;SDS011;18083;50.560;7.262;2023-01-19T14:44:37;5.73;;;3.80;;
26484;SDS011;18083;50.560;7.262;2023-01-19T14:47:00;5.93;;;3.93;;
26484;SDS011;18083;50.560;7.262;2023-01-19T14:49:38;5.43;;;3.83;;
26484;SDS011;18083;50.560;7.262;2023-01-19T14:52:23;8.07;;;3.90;;
26484;SDS011;18083;50.560;7.262;2023-01-19T14:54:50;6.87;;;4.33;;
26484;SDS011;18083;50.560;7.262;2023-01-19T14:57:18;5.27;;;3.50;;
26484;SDS011;18083;50.560;7.262;2023-01-19T14:59:45;5.33;;;3.30;;
26484;SDS011;18083;50.560;7.262;2023-01-19T15:02:14;10.47;;;4.17;;
26484;SDS011;18083;50.560;7.262;2023-01-19T15:04:44;7.67;;;3.33;;
26484;SDS011;18083;50.560;7.262;2023-01-19T15:07:21;4.43;;;3.43;;
26484;SDS011;18083;50.560;7.262;2023-01-19T15:09:45;5.33;;;3.90;;
26484;SDS011;18083;50.560;7.262;2023-01-19T15:12:13;7.77;;;3.90;;
26484;SDS011;18083;50.560;7.262;2023-01-19T15:14:41;6.03;;;3.53;;
26484;SDS011;18083;50.560;7.262;2023-01-19T15:17:15;6.47;;;3.73;;
26484;SDS011;18083;50.560;7.262;2023-01-19T15:19:40;8.20;;;4.07;;
26484;SDS011;18083;50.560;7.262;2023-01-19T15:22:10;9.63;;;4.17;;
26484;SDS011;18083;50.560;7.262;2023-01-19T15:24:39;6.37;;;3.57;;
26484;SDS011;18083;50.560;7.262;2023-01-19T15:27:12;7.07;;;3.67;;
26484;SDS011;18083;50.560;7.262;2023-01-19T15:29:39;9.37;;;4.13;;
26484;SDS011;18083;50.560;7.262;2023-01-19T15:32:10;10.93;;;3.87;;
26484;SDS011;18083;50.560;7.262;2023-01-19T15:34:38;9.43;;;4.30;;
26484;SDS011;18083;50.560;7.262;2023-01-19T15:37:06;13.30;;;4.73;;
26484;SDS011;18083;50.560;7.262;2023-01-19T15:39:34;8.53;;;4.63;;
26484;SDS011;18083;50.560;7.262;2023-01-19T15:42:02;14.33;;;5.93;;
26484;SDS011;18083;50.560;7.262;2023-01-19T15:44:29;19.97;;;9.53;;
26484;SDS011;18083;50.560;7.262;2023-01-19T15:46:56;15.53;;;7.03;;
26484;SDS011;18083;50.560;7.262;2023-01-19T15:49:24;20.10;;;7.43;;
26484;SDS011;18083;50.560;7.262;2023-01-19T15:54:38;17.77;;;9.83;;
26484;SDS011;18083;50.560;7.262;2023-01-19T15:57:05;15.07;;;10.00;;
26484;SDS011;18083;50.560;7.262;2023-01-19T15:59:33;15.10;;;7.60;;
26484;SDS011;18083;50.560;7.262;2023-01-19T16:02:00;13.30;;;8.53;;
26484;SDS011;18083;50.560;7.262;2023-01-19T16:04:28;11.63;;;7.87;;
26484;SDS011;18083;50.560;7.262;2023-01-19T16:06:55;11.57;;;7.27;;
26484;SDS011;18083;50.560;7.262;2023-01-19T16:09:23;10.17;;;6.57;;
26484;SDS011;18083;50.560;7.262;2023-01-19T16:11:53;11.10;;;5.37;;
26484;SDS011;18083;50.560;7.262;2023-01-19T16:14:19;18.83;;;10.03;;
26484;SDS011;18083;50.560;7.262;2023-01-19T16:16:46;11.53;;;8.30;;
26484;SDS011;18083;50.560;7.262;2023-01-19T16:19:14;13.87;;;8.50;;
26484;SDS011;18083;50.560;7.262;2023-01-19T16:21:41;8.70;;;5.93;;